createdAt,value
2018-11-06T00:02:24.695Z,8.50
2018-11-06T00:04:57.881Z,8.50
2018-11-06T00:07:26.142Z,8.50
2018-11-06T00:09:54.247Z,8.50
2018-11-06T00:12:21.928Z,8.50
2018-11-06T00:14:49.704Z,8.60
2018-11-06T00:17:17.350Z,8.60
2018-11-06T00:19:45.131Z,8.60
2018-11-06T00:22:12.811Z,8.50
2018-11-06T00:24:40.627Z,8.50
2018-11-06T00:27:08.557Z,8.50
2018-11-06T00:29:36.189Z,8.50
2018-11-06T00:32:03.843Z,8.50
2018-11-06T00:34:31.706Z,8.50
2018-11-06T00:37:01.225Z,8.50
2018-11-06T00:39:28.742Z,8.50
2018-11-06T00:41:56.381Z,8.50
2018-11-06T00:44:24.112Z,8.60
2018-11-06T00:46:51.821Z,8.60
2018-11-06T00:49:19.369Z,8.60
2018-11-06T00:51:47.000Z,8.60
2018-11-06T00:54:17.050Z,8.50
2018-11-06T00:56:44.794Z,8.50
2018-11-06T00:59:12.496Z,8.40
2018-11-06T01:01:40.161Z,8.40
2018-11-06T01:04:09.418Z,8.40
2018-11-06T01:06:37.526Z,8.40
2018-11-06T01:09:07.011Z,8.40
2018-11-06T01:11:34.674Z,8.40
2018-11-06T01:14:02.215Z,8.30
2018-11-06T01:16:29.784Z,8.20
2018-11-06T01:18:57.598Z,8.20
2018-11-06T01:21:27.138Z,8.20
2018-11-06T01:23:54.827Z,8.20
2018-11-06T01:26:22.560Z,8.20
2018-11-06T01:28:51.280Z,8.20
2018-11-06T01:31:18.944Z,8.20
2018-11-06T01:33:48.352Z,8.20
2018-11-06T01:36:16.299Z,8.20
2018-11-06T01:38:44.006Z,8.30
2018-11-06T01:41:11.713Z,8.30
2018-11-06T01:43:39.619Z,8.40
2018-11-06T01:46:07.402Z,8.40
2018-11-06T01:48:35.441Z,8.40
2018-11-06T01:51:03.262Z,8.40
2018-11-06T01:53:30.945Z,8.40
2018-11-06T01:55:58.829Z,8.30
2018-11-06T01:58:26.551Z,8.30
2018-11-06T02:00:54.592Z,8.30
2018-11-06T02:03:22.338Z,8.30
2018-11-06T02:05:51.104Z,8.30
2018-11-06T02:08:18.975Z,8.20
2018-11-06T02:10:47.834Z,8.10
2018-11-06T02:13:15.538Z,8.10
2018-11-06T02:15:43.209Z,8.00
2018-11-06T02:18:11.917Z,8.00
2018-11-06T02:20:39.874Z,8.00
2018-11-06T02:23:07.691Z,7.90
2018-11-06T02:25:35.352Z,8.00
2018-11-06T02:28:03.638Z,8.00
2018-11-06T02:30:34.372Z,8.00
2018-11-06T02:33:02.604Z,8.00
2018-11-06T02:35:30.405Z,8.00
2018-11-06T02:37:58.044Z,8.00
2018-11-06T02:40:26.488Z,7.90
2018-11-06T02:42:55.012Z,7.90
2018-11-06T02:45:22.846Z,7.90
2018-11-06T02:47:52.699Z,7.90
2018-11-06T02:50:20.467Z,7.90
2018-11-06T02:52:48.330Z,7.80
2018-11-06T02:55:15.963Z,7.80
2018-11-06T02:57:43.697Z,7.70
2018-11-06T03:00:16.754Z,7.70
2018-11-06T03:02:45.686Z,7.70
2018-11-06T03:05:13.406Z,7.80
2018-11-06T03:07:41.842Z,7.80
2018-11-06T03:10:10.784Z,7.80
2018-11-06T03:12:40.708Z,7.80
2018-11-06T03:15:09.231Z,7.80
2018-11-06T03:17:37.168Z,7.80
2018-11-06T03:20:08.495Z,7.80
2018-11-06T03:22:36.186Z,7.80
2018-11-06T03:25:04.081Z,7.80
2018-11-06T03:27:31.864Z,7.80
2018-11-06T03:29:59.618Z,7.70
2018-11-06T03:32:27.612Z,7.70
2018-11-06T03:34:55.362Z,7.70
2018-11-06T03:37:23.108Z,7.70
2018-11-06T03:39:51.012Z,7.80
2018-11-06T03:42:18.958Z,7.80
2018-11-06T03:44:46.841Z,7.80
2018-11-06T03:47:14.613Z,7.80
2018-11-06T03:49:42.400Z,7.80
2018-11-06T03:52:10.281Z,7.80
2018-11-06T03:54:37.918Z,7.80
2018-11-06T03:57:05.596Z,7.90
2018-11-06T04:04:05.849Z,7.90
2018-11-06T04:06:35.048Z,7.90
2018-11-06T04:09:03.098Z,7.80
2018-11-06T04:11:30.873Z,7.90
2018-11-06T04:13:58.636Z,7.80
2018-11-06T04:16:27.499Z,7.80
2018-11-06T04:18:55.640Z,7.80
2018-11-06T04:21:28.531Z,7.80
2018-11-06T04:23:56.336Z,7.90
2018-11-06T04:26:24.026Z,7.80
2018-11-06T04:28:51.855Z,7.80
2018-11-06T04:31:19.519Z,7.90
2018-11-06T04:33:47.444Z,7.90
2018-11-06T04:36:15.298Z,7.80
2018-11-06T04:38:43.758Z,7.80
2018-11-06T04:41:11.553Z,7.80
2018-11-06T04:43:39.338Z,7.80
2018-11-06T04:46:07.161Z,7.80
2018-11-06T04:48:35.051Z,7.90
2018-11-06T04:51:03.140Z,7.90
2018-11-06T04:53:33.875Z,7.90
2018-11-06T04:56:04.650Z,7.90
2018-11-06T04:58:32.771Z,7.90
2018-11-06T05:01:01.282Z,7.90
2018-11-06T05:03:29.724Z,7.90
2018-11-06T05:05:57.497Z,7.90
2018-11-06T05:08:25.807Z,7.90
2018-11-06T05:10:53.978Z,7.90
2018-11-06T05:13:21.743Z,7.90
2018-11-06T05:15:50.131Z,7.90
2018-11-06T05:18:20.513Z,7.90
2018-11-06T05:20:52.244Z,7.80
2018-11-06T05:23:21.897Z,7.80
2018-11-06T05:25:50.189Z,7.90
2018-11-06T05:28:18.352Z,7.90
2018-11-06T05:30:46.824Z,7.90
2018-11-06T05:33:16.190Z,7.80
2018-11-06T05:35:45.929Z,7.80
2018-11-06T05:38:14.214Z,7.80
2018-11-06T05:40:54.140Z,7.80
2018-11-06T05:43:22.583Z,7.80
2018-11-06T05:45:51.682Z,7.80
2018-11-06T05:48:22.658Z,7.80
2018-11-06T05:50:50.684Z,7.80
2018-11-06T05:53:19.576Z,7.70
2018-11-06T05:55:48.345Z,7.70
2018-11-06T05:58:16.679Z,7.60
2018-11-06T06:00:45.391Z,7.70
2018-11-06T06:03:13.672Z,7.70
2018-11-06T06:05:42.044Z,7.70
2018-11-06T06:08:12.189Z,7.70
2018-11-06T06:10:40.633Z,7.70
2018-11-06T06:13:10.165Z,7.60
2018-11-06T06:15:38.752Z,7.60
2018-11-06T06:18:07.336Z,7.60
2018-11-06T06:20:37.281Z,7.60
2018-11-06T06:23:07.139Z,7.60
2018-11-06T06:25:35.746Z,7.60
2018-11-06T06:28:04.118Z,7.60
2018-11-06T06:30:32.874Z,7.60
2018-11-06T06:33:04.694Z,7.60
2018-11-06T06:35:33.434Z,7.70
2018-11-06T06:38:03.013Z,7.70
2018-11-06T06:40:33.032Z,7.70
2018-11-06T06:43:01.873Z,7.60
2018-11-06T06:45:31.035Z,7.60
2018-11-06T06:47:59.365Z,7.60
2018-11-06T06:50:31.596Z,7.60
2018-11-06T06:53:02.324Z,7.60
2018-11-06T06:55:31.950Z,7.60
2018-11-06T07:00:46.964Z,7.60
2018-11-06T07:05:55.247Z,7.60
2018-11-06T07:08:40.243Z,7.60
2018-11-06T07:11:09.336Z,7.60
2018-11-06T07:13:37.902Z,7.60
2018-11-06T07:16:07.909Z,7.60
2018-11-06T07:18:36.408Z,7.60
2018-11-06T07:21:11.875Z,7.60
2018-11-06T07:23:40.718Z,7.70
2018-11-06T07:26:09.323Z,7.60
2018-11-06T07:28:37.876Z,7.60
2018-11-06T07:31:07.243Z,7.50
2018-11-06T07:33:35.776Z,7.50
2018-11-06T07:36:05.056Z,7.50
2018-11-06T07:38:36.482Z,7.50
2018-11-06T07:41:05.535Z,7.60
2018-11-06T07:43:34.454Z,7.60
2018-11-06T07:46:05.300Z,7.70
2018-11-06T07:48:34.743Z,7.70
2018-11-06T07:51:05.416Z,7.60
2018-11-06T07:53:36.130Z,7.60
2018-11-06T07:56:05.023Z,7.50
2018-11-06T07:58:33.787Z,7.60
2018-11-06T08:01:04.013Z,7.60
2018-11-06T08:03:32.624Z,7.70
2018-11-06T08:06:03.474Z,7.70
2018-11-06T08:08:33.353Z,7.70
2018-11-06T08:11:04.402Z,7.80
2018-11-06T08:13:34.684Z,7.90
2018-11-06T08:16:06.185Z,7.80
2018-11-06T08:18:35.224Z,7.80
2018-11-06T08:21:04.797Z,7.90
2018-11-06T08:23:33.507Z,7.90
2018-11-06T08:26:03.486Z,7.90
2018-11-06T08:28:32.631Z,8.00
2018-11-06T08:31:01.683Z,8.10
2018-11-06T08:36:45.119Z,8.10
2018-11-06T23:16:20.604Z,8.20
2018-11-06T23:18:48.586Z,8.20
2018-11-06T23:21:16.967Z,8.00
2018-11-06T23:23:44.929Z,8.00
2018-11-06T23:26:13.016Z,8.00
2018-11-06T23:28:43.764Z,8.10
2018-11-06T23:31:13.030Z,8.10
2018-11-06T23:33:41.600Z,8.10
2018-11-06T23:36:09.898Z,8.00
2018-11-06T23:38:38.505Z,8.00
2018-11-06T23:41:06.888Z,8.00
2018-11-06T23:43:35.320Z,8.00
2018-11-06T23:46:03.134Z,8.00
2018-11-06T23:48:31.049Z,8.00
2018-11-06T23:50:58.947Z,8.00
2018-11-06T23:53:26.634Z,8.10
2018-11-06T23:55:54.407Z,8.10
2018-11-06T23:58:22.623Z,8.20
